TFM - Tactical Decision Aid (Experimental) INFO Settings
 
 

ID: Runway Winds: CIG/VIS Threshold: METAR Board: Map:

KDFW - Dallas/Fort Worth Intl

Updated at: 1331 UTC 21 Oct 2014
Latest TAF at: 1120 UTC 21 Oct 2014

TAF Board

Time1253Z21/14Z21/15Z21/16Z21/17Z21/18Z21/19Z21/20Z21/21Z21/22Z21/23Z22/00Z22/01Z22/02Z
TypeOBSPRVLPRVLPRVLPRVLPRVLPRVLPRVLPRVLPRVLPRVLPRVLPRVLPRVL
VIS8>6>6>6>6>6>6>6>6>6>6>6>6>6
CIG----------------------------
CoverSCTSCTSCTSCTSCTSCTSCTSCTSCTSCTSCTSCTSCTSCT
FltCat--VFRVFRVFRVFRVFRVFRVFRVFRVFRVFRVFRVFRVFR
WX----------------------------
WDirVRB140140140140140140140140140140140140140
WSpd04444444444444
WGst----------------------------
TAF
KDFW 211120Z 2112/2218 14004KT P6SM SCT250

METAR
KDFW 211253Z 00000KT 8SM FEW120 SCT250 16/13 A3008 RMK AO2 SLP181 T01560133

TAF/METAR Board Legend

Potential Impact
  None Marginal Slight Moderate High
Visibility (sm) >5 3≤X≤5 1≤X<3 0.5≤X<1 <0.5
Ceiling (100 ft) >30 10≤X≤30 4≤X<10 2≤X<4 <2
Wind Speed (kt) <10 10≤X<20 20≤X<30 ≥30
Wind Gust (kt) <15 15≤X<25 25≤X<35 ≥35
Weather No Wx Reported VCTS -TS,-FZRA TS,FZRA +TS,+FZRA